sensor_id;sensor_type;location;lat;lon;timestamp;pressure;altitude;pressure_sealevel;temperature;humidity
20015;BME280;61787;42.022;23.078;2023-02-12T00:00:17;97882.25;;;-2.24;69.30
20015;BME280;61787;42.022;23.078;2023-02-12T00:01:20;97882.97;;;-2.17;69.56
20015;BME280;61787;42.022;23.078;2023-02-12T00:02:22;97887.34;;;-2.10;68.96
20015;BME280;61787;42.022;23.078;2023-02-12T00:03:23;97884.69;;;-2.10;68.83
20015;BME280;61787;42.022;23.078;2023-02-12T00:04:25;97889.84;;;-2.16;68.93
20015;BME280;61787;42.022;23.078;2023-02-12T00:05:27;97888.31;;;-2.23;69.73
20015;BME280;61787;42.022;23.078;2023-02-12T00:06:29;97882.72;;;-2.27;69.79
20015;BME280;61787;42.022;23.078;2023-02-12T00:07:30;97876.91;;;-2.17;69.87
20015;BME280;61787;42.022;23.078;2023-02-12T00:08:32;97885.03;;;-2.07;69.33
20015;BME280;61787;42.022;23.078;2023-02-12T00:09:34;97883.47;;;-1.96;69.06
20015;BME280;61787;42.022;23.078;2023-02-12T00:10:40;97884.03;;;-1.94;68.58
20015;BME280;61787;42.022;23.078;2023-02-12T00:11:43;97881.97;;;-1.92;68.57
20015;BME280;61787;42.022;23.078;2023-02-12T00:12:45;97875.22;;;-1.88;69.03
20015;BME280;61787;42.022;23.078;2023-02-12T00:13:46;97871.69;;;-1.94;68.63
20015;BME280;61787;42.022;23.078;2023-02-12T00:14:48;97873.19;;;-1.86;68.84
20015;BME280;61787;42.022;23.078;2023-02-12T00:15:49;97872.50;;;-1.93;68.81
20015;BME280;61787;42.022;23.078;2023-02-12T00:16:51;97876.56;;;-2.09;68.83
20015;BME280;61787;42.022;23.078;2023-02-12T00:17:53;97872.63;;;-2.30;69.37
20015;BME280;61787;42.022;23.078;2023-02-12T00:18:55;97872.38;;;-2.40;70.49
20015;BME280;61787;42.022;23.078;2023-02-12T00:19:57;97871.56;;;-2.52;71.04
20015;BME280;61787;42.022;23.078;2023-02-12T00:21:00;97874.44;;;-2.72;71.52
20015;BME280;61787;42.022;23.078;2023-02-12T00:22:01;97871.66;;;-2.77;72.80
20015;BME280;61787;42.022;23.078;2023-02-12T00:23:04;97874.00;;;-2.69;72.81
20015;BME280;61787;42.022;23.078;2023-02-12T00:24:06;97871.44;;;-2.57;72.26
20015;BME280;61787;42.022;23.078;2023-02-12T00:25:07;97875.00;;;-2.51;72.44
20015;BME280;61787;42.022;23.078;2023-02-12T00:26:13;97872.84;;;-2.43;72.22
20015;BME280;61787;42.022;23.078;2023-02-12T00:27:14;97869.06;;;-2.47;72.33
20015;BME280;61787;42.022;23.078;2023-02-12T00:28:16;97869.94;;;-2.53;72.07
20015;BME280;61787;42.022;23.078;2023-02-12T00:29:18;97871.44;;;-2.57;72.41
20015;BME280;61787;42.022;23.078;2023-02-12T00:30:20;97872.75;;;-2.66;72.06
20015;BME280;61787;42.022;23.078;2023-02-12T00:31:24;97868.16;;;-2.71;71.88
20015;BME280;61787;42.022;23.078;2023-02-12T00:32:26;97870.16;;;-2.84;72.19
20015;BME280;61787;42.022;23.078;2023-02-12T00:33:28;97869.94;;;-3.01;72.96
20015;BME280;61787;42.022;23.078;2023-02-12T00:34:30;97867.03;;;-3.11;73.43
20015;BME280;61787;42.022;23.078;2023-02-12T00:35:31;97859.63;;;-3.14;73.55
20015;BME280;61787;42.022;23.078;2023-02-12T00:36:33;97865.22;;;-3.11;73.61
20015;BME280;61787;42.022;23.078;2023-02-12T00:37:34;97868.44;;;-3.09;73.88
20015;BME280;61787;42.022;23.078;2023-02-12T00:38:36;97865.97;;;-3.04;73.89
20015;BME280;61787;42.022;23.078;2023-02-12T00:39:38;97867.13;;;-2.99;73.59
20015;BME280;61787;42.022;23.078;2023-02-12T00:40:39;97863.03;;;-2.95;73.69
20015;BME280;61787;42.022;23.078;2023-02-12T00:41:41;97870.03;;;-2.89;73.75
20015;BME280;61787;42.022;23.078;2023-02-12T00:42:42;97872.78;;;-2.84;73.28
20015;BME280;61787;42.022;23.078;2023-02-12T00:43:44;97875.69;;;-2.74;nan
20015;BME280;61787;42.022;23.078;2023-02-12T00:44:46;97871.94;;;-2.67;72.73
20015;BME280;61787;42.022;23.078;2023-02-12T00:45:48;97862.06;;;-2.53;72.25
20015;BME280;61787;42.022;23.078;2023-02-12T00:46:49;97860.28;;;-2.41;71.36
20015;BME280;61787;42.022;23.078;2023-02-12T00:47:51;97859.50;;;-2.30;71.04
20015;BME280;61787;42.022;23.078;2023-02-12T00:48:53;97868.44;;;-2.19;70.63
20015;BME280;61787;42.022;23.078;2023-02-12T00:49:54;97859.44;;;-2.11;70.12
20015;BME280;61787;42.022;23.078;2023-02-12T00:50:56;97856.94;;;-2.06;69.92
20015;BME280;61787;42.022;23.078;2023-02-12T00:51:57;97854.88;;;-2.04;69.57
20015;BME280;61787;42.022;23.078;2023-02-12T00:52:59;97862.53;;;-2.03;69.28
20015;BME280;61787;42.022;23.078;2023-02-12T00:54:00;97865.84;;;-2.07;69.38
20015;BME280;61787;42.022;23.078;2023-02-12T00:55:03;97869.38;;;-2.13;69.52
20015;BME280;61787;42.022;23.078;2023-02-12T00:56:04;97864.78;;;-2.18;69.75
20015;BME280;61787;42.022;23.078;2023-02-12T00:57:06;97865.69;;;-2.24;69.61
20015;BME280;61787;42.022;23.078;2023-02-12T00:58:08;97864.47;;;-2.22;69.55
20015;BME280;61787;42.022;23.078;2023-02-12T00:59:10;97862.50;;;-2.15;69.48
20015;BME280;61787;42.022;23.078;2023-02-12T01:00:13;97862.97;;;-2.18;69.34
20015;BME280;61787;42.022;23.078;2023-02-12T01:01:15;97866.50;;;-2.24;69.62
20015;BME280;61787;42.022;23.078;2023-02-12T01:02:17;97859.50;;;-2.30;70.39
20015;BME280;61787;42.022;23.078;2023-02-12T01:03:18;97861.69;;;-2.27;70.87
20015;BME280;61787;42.022;23.078;2023-02-12T01:04:21;97865.69;;;-2.24;70.85
20015;BME280;61787;42.022;23.078;2023-02-12T01:05:23;97859.63;;;-2.25;70.45
20015;BME280;61787;42.022;23.078;2023-02-12T01:06:24;97851.19;;;-2.27;70.97
20015;BME280;61787;42.022;23.078;2023-02-12T01:07:26;97848.56;;;-2.27;71.46
20015;BME280;61787;42.022;23.078;2023-02-12T01:08:28;97852.69;;;-2.19;71.30
20015;BME280;61787;42.022;23.078;2023-02-12T01:09:30;97853.19;;;-2.10;70.66
20015;BME280;61787;42.022;23.078;2023-02-12T01:10:32;97850.00;;;-2.01;70.33
20015;BME280;61787;42.022;23.078;2023-02-12T01:11:33;97853.06;;;-1.92;70.48
20015;BME280;61787;42.022;23.078;2023-02-12T01:12:35;97849.75;;;-1.88;70.23
20015;BME280;61787;42.022;23.078;2023-02-12T01:13:36;97851.38;;;-1.87;69.55
20015;BME280;61787;42.022;23.078;2023-02-12T01:14:38;97853.63;;;-1.79;69.52
20015;BME280;61787;42.022;23.078;2023-02-12T01:15:40;97849.88;;;-1.71;69.61
20015;BME280;61787;42.022;23.078;2023-02-12T01:16:42;97847.03;;;-1.69;69.14
20015;BME280;61787;42.022;23.078;2023-02-12T01:17:44;97840.88;;;-1.75;68.77
20015;BME280;61787;42.022;23.078;2023-02-12T01:18:47;97842.22;;;-1.73;68.69
20015;BME280;61787;42.022;23.078;2023-02-12T01:19:48;97841.78;;;-1.69;69.11
20015;BME280;61787;42.022;23.078;2023-02-12T01:20:50;97836.84;;;-1.66;69.07
20015;BME280;61787;42.022;23.078;2023-02-12T01:21:51;97845.66;;;-1.60;69.17
20015;BME280;61787;42.022;23.078;2023-02-12T01:22:53;97834.22;;;-1.54;69.05
20015;BME280;61787;42.022;23.078;2023-02-12T01:23:55;97833.53;;;-1.50;68.47
20015;BME280;61787;42.022;23.078;2023-02-12T01:24:57;97837.28;;;-1.46;68.27
20015;BME280;61787;42.022;23.078;2023-02-12T01:25:59;97833.63;;;-1.45;68.66
20015;BME280;61787;42.022;23.078;2023-02-12T01:27:00;97831.13;;;-1.40;68.49
20015;BME280;61787;42.022;23.078;2023-02-12T01:28:02;97834.88;;;-1.36;68.34
20015;BME280;61787;42.022;23.078;2023-02-12T01:29:05;97832.34;;;-1.31;68.00
20015;BME280;61787;42.022;23.078;2023-02-12T01:30:11;97832.69;;;-1.27;67.88
20015;BME280;61787;42.022;23.078;2023-02-12T01:31:16;97828.13;;;-1.32;67.62
20015;BME280;61787;42.022;23.078;2023-02-12T01:32:18;97825.66;;;-1.50;67.73
20015;BME280;61787;42.022;23.078;2023-02-12T01:33:19;97827.94;;;-1.77;68.01
20015;BME280;61787;42.022;23.078;2023-02-12T01:34:21;97823.34;;;-2.04;69.16
20015;BME280;61787;42.022;23.078;2023-02-12T01:35:22;97828.13;;;-2.25;69.91
20015;BME280;61787;42.022;23.078;2023-02-12T01:36:26;97822.28;;;-2.38;70.87
20015;BME280;61787;42.022;23.078;2023-02-12T01:37:28;97822.56;;;-2.58;71.67
20015;BME280;61787;42.022;23.078;2023-02-12T01:38:29;97817.59;;;-2.78;72.59
20015;BME280;61787;42.022;23.078;2023-02-12T01:39:32;97814.19;;;-2.96;72.91
20015;BME280;61787;42.022;23.078;2023-02-12T01:40:34;97821.22;;;-3.09;73.65
20015;BME280;61787;42.022;23.078;2023-02-12T01:41:43;97820.97;;;-3.19;74.42
20015;BME280;61787;42.022;23.078;2023-02-12T01:42:45;97817.00;;;-3.28;74.96
20015;BME280;61787;42.022;23.078;2023-02-12T01:44:14;97811.06;;;-3.35;75.60
20015;BME280;61787;42.022;23.078;2023-02-12T01:45:37;97822.72;;;-3.49;76.02
20015;BME280;61787;42.022;23.078;2023-02-12T01:46:38;97810.38;;;-3.49;76.47
20015;BME280;61787;42.022;23.078;2023-02-12T01:47:42;97808.81;;;-3.50;76.41
20015;BME280;61787;42.022;23.078;2023-02-12T01:48:45;97805.94;;;-3.48;76.53
20015;BME280;61787;42.022;23.078;2023-02-12T01:49:47;97802.75;;;-3.50;76.35
20015;BME280;61787;42.022;23.078;2023-02-12T01:50:50;97798.53;;;-3.51;76.30
20015;BME280;61787;42.022;23.078;2023-02-12T01:51:58;97805.94;;;-3.48;76.47
20015;BME280;61787;42.022;23.078;2023-02-12T01:53:01;97804.72;;;-3.46;76.71
20015;BME280;61787;42.022;23.078;2023-02-12T01:54:06;97805.06;;;-3.42;76.20
20015;BME280;61787;42.022;23.078;2023-02-12T01:55:09;97802.44;;;-3.42;75.93
20015;BME280;61787;42.022;23.078;2023-02-12T01:56:12;97795.75;;;-3.38;76.06
20015;BME280;61787;42.022;23.078;2023-02-12T01:57:14;97796.53;;;-3.37;75.70
20015;BME280;61787;42.022;23.078;2023-02-12T01:58:18;97799.41;;;-3.39;75.50
20015;BME280;61787;42.022;23.078;2023-02-12T01:59:20;97805.22;;;-3.37;75.83
20015;BME280;61787;42.022;23.078;2023-02-12T02:00:23;97801.38;;;-3.34;75.90
20015;BME280;61787;42.022;23.078;2023-02-12T02:01:27;97798.50;;;-3.33;75.80
20015;BME280;61787;42.022;23.078;2023-02-12T02:02:30;97802.88;;;-3.27;75.94
20015;BME280;61787;42.022;23.078;2023-02-12T02:03:35;97805.06;;;-3.24;75.92
20015;BME280;61787;42.022;23.078;2023-02-12T02:04:59;97795.69;;;-3.31;76.32
20015;BME280;61787;42.022;23.078;2023-02-12T02:06:07;97795.47;;;-3.30;76.78
20015;BME280;61787;42.022;23.078;2023-02-12T02:07:10;97792.31;;;-3.20;76.60
20015;BME280;61787;42.022;23.078;2023-02-12T02:08:12;97785.31;;;-3.08;76.17
20015;BME280;61787;42.022;23.078;2023-02-12T02:09:17;97795.84;;;-2.96;75.95
20015;BME280;61787;42.022;23.078;2023-02-12T02:10:19;97800.34;;;-2.85;75.37
20015;BME280;61787;42.022;23.078;2023-02-12T02:11:21;97799.56;;;-2.74;74.88
20015;BME280;61787;42.022;23.078;2023-02-12T02:12:41;97804.06;;;-2.63;74.25
20015;BME280;61787;42.022;23.078;2023-02-12T02:14:02;97790.59;;;-2.55;74.02
20015;BME280;61787;42.022;23.078;2023-02-12T02:15:24;97788.31;;;-2.63;73.52
20015;BME280;61787;42.022;23.078;2023-02-12T02:16:27;97786.31;;;-2.79;74.38
20015;BME280;61787;42.022;23.078;2023-02-12T02:17:53;97780.34;;;-2.86;74.84
20015;BME280;61787;42.022;23.078;2023-02-12T02:19:04;97783.56;;;-2.84;74.46
20015;BME280;61787;42.022;23.078;2023-02-12T02:20:40;97782.81;;;-2.73;74.61
20015;BME280;61787;42.022;23.078;2023-02-12T02:23:59;97795.34;;;-2.75;74.94
20015;BME280;61787;42.022;23.078;2023-02-12T02:27:38;97798.72;;;-2.56;74.72
20015;BME280;61787;42.022;23.078;2023-02-12T02:28:55;97794.88;;;-2.42;74.20
20015;BME280;61787;42.022;23.078;2023-02-12T02:31:20;97801.75;;;-2.18;72.87
20015;BME280;61787;42.022;23.078;2023-02-12T02:32:29;97796.41;;;-2.11;72.31
20015;BME280;61787;42.022;23.078;2023-02-12T02:34:46;97795.03;;;-2.02;72.43
20015;BME280;61787;42.022;23.078;2023-02-12T02:37:41;97795.47;;;-1.82;71.58
20015;BME280;61787;42.022;23.078;2023-02-12T02:39:02;97791.34;;;-1.78;70.91
20015;BME280;61787;42.022;23.078;2023-02-12T02:40:11;97794.09;;;-1.73;70.98
20015;BME280;61787;42.022;23.078;2023-02-12T02:41:19;97787.59;;;-1.70;70.46
20015;BME280;61787;42.022;23.078;2023-02-12T02:42:37;97795.81;;;-1.67;69.81
20015;BME280;61787;42.022;23.078;2023-02-12T02:43:44;97792.72;;;-1.64;69.28
20015;BME280;61787;42.022;23.078;2023-02-12T02:44:58;97791.81;;;-1.69;69.55
20015;BME280;61787;42.022;23.078;2023-02-12T02:46:33;97796.03;;;-1.68;68.81
20015;BME280;61787;42.022;23.078;2023-02-12T02:47:45;97798.25;;;-2.00;68.69
20015;BME280;61787;42.022;23.078;2023-02-12T02:48:52;97797.84;;;-2.39;70.46
20015;BME280;61787;42.022;23.078;2023-02-12T02:49:57;97791.78;;;-2.39;70.52
20015;BME280;61787;42.022;23.078;2023-02-12T02:51:05;97788.94;;;-2.38;70.12
20015;BME280;61787;42.022;23.078;2023-02-12T02:52:15;97780.81;;;-2.48;71.01
20015;BME280;61787;42.022;23.078;2023-02-12T02:53:23;97781.97;;;-2.44;70.61
20015;BME280;61787;42.022;23.078;2023-02-12T02:54:41;97782.63;;;-2.48;70.68
20015;BME280;61787;42.022;23.078;2023-02-12T02:55:48;97787.44;;;-2.57;71.26
20015;BME280;61787;42.022;23.078;2023-02-12T02:56:55;97780.56;;;-2.58;71.36
20015;BME280;61787;42.022;23.078;2023-02-12T02:58:03;97789.13;;;-2.51;71.71
20015;BME280;61787;42.022;23.078;2023-02-12T02:59:13;97790.63;;;-2.43;71.26
20015;BME280;61787;42.022;23.078;2023-02-12T03:00:17;97789.06;;;-2.33;70.69
20015;BME280;61787;42.022;23.078;2023-02-12T03:01:24;97789.72;;;-2.26;70.38
20015;BME280;61787;42.022;23.078;2023-02-12T03:02:31;97790.22;;;-2.17;69.81
20015;BME280;61787;42.022;23.078;2023-02-12T03:03:50;97789.06;;;-2.09;69.41
20015;BME280;61787;42.022;23.078;2023-02-12T03:06:38;97795.50;;;-2.05;69.12
20015;BME280;61787;42.022;23.078;2023-02-12T03:07:48;97797.41;;;-2.12;69.40
20015;BME280;61787;42.022;23.078;2023-02-12T03:08:56;97794.88;;;-2.19;69.01
20015;BME280;61787;42.022;23.078;2023-02-12T03:10:13;97799.22;;;-2.25;69.61
20015;BME280;61787;42.022;23.078;2023-02-12T03:11:28;97791.81;;;-2.28;69.50
20015;BME280;61787;42.022;23.078;2023-02-12T03:12:40;97788.84;;;-2.31;69.87
20015;BME280;61787;42.022;23.078;2023-02-12T03:13:51;97792.50;;;-2.32;69.75
20015;BME280;61787;42.022;23.078;2023-02-12T03:15:07;97790.19;;;-2.29;69.47
20015;BME280;61787;42.022;23.078;2023-02-12T03:16:27;97779.69;;;-2.29;69.32
20015;BME280;61787;42.022;23.078;2023-02-12T03:17:33;97789.72;;;-2.26;69.96
20015;BME280;61787;42.022;23.078;2023-02-12T03:18:42;97792.38;;;-2.26;69.54
20015;BME280;61787;42.022;23.078;2023-02-12T03:19:52;97790.91;;;-2.22;69.66
20015;BME280;61787;42.022;23.078;2023-02-12T03:21:07;97783.94;;;-2.28;69.32
20015;BME280;61787;42.022;23.078;2023-02-12T03:22:16;97787.00;;;-2.31;69.65
20015;BME280;61787;42.022;23.078;2023-02-12T03:23:24;97782.53;;;-2.30;69.69
20015;BME280;61787;42.022;23.078;2023-02-12T03:24:35;97789.63;;;-2.31;69.91
20015;BME280;61787;42.022;23.078;2023-02-12T03:25:41;97788.00;;;-2.43;70.49
20015;BME280;61787;42.022;23.078;2023-02-12T03:26:57;97785.81;;;-2.58;71.21
20015;BME280;61787;42.022;23.078;2023-02-12T03:28:08;97786.59;;;-2.69;72.02
20015;BME280;61787;42.022;23.078;2023-02-12T03:29:12;97785.19;;;-2.72;72.03
20015;BME280;61787;42.022;23.078;2023-02-12T03:30:14;97789.03;;;-2.86;72.32
20015;BME280;61787;42.022;23.078;2023-02-12T03:32:32;97776.72;;;-2.85;72.87
20015;BME280;61787;42.022;23.078;2023-02-12T03:34:25;97771.78;;;-2.93;72.94
20015;BME280;61787;42.022;23.078;2023-02-12T03:35:31;97780.41;;;-3.05;73.89
20015;BME280;61787;42.022;23.078;2023-02-12T03:36:47;97778.06;;;-2.94;73.78
20015;BME280;61787;42.022;23.078;2023-02-12T03:40:35;97787.75;;;-2.53;72.31
20015;BME280;61787;42.022;23.078;2023-02-12T03:41:44;97787.44;;;-2.45;72.06
20015;BME280;61787;42.022;23.078;2023-02-12T03:44:09;97786.66;;;-2.34;71.45
20015;BME280;61787;42.022;23.078;2023-02-12T03:45:38;97792.00;;;-2.41;71.38
20015;BME280;61787;42.022;23.078;2023-02-12T03:46:58;97781.28;;;-2.81;73.38
20015;BME280;61787;42.022;23.078;2023-02-12T03:48:12;97790.91;;;-3.05;74.61
20015;BME280;61787;42.022;23.078;2023-02-12T03:49:47;97781.56;;;-3.01;75.10
20015;BME280;61787;42.022;23.078;2023-02-12T03:51:02;97784.03;;;-2.87;74.76
20015;BME280;61787;42.022;23.078;2023-02-12T03:52:05;97785.88;;;-2.76;74.66
20015;BME280;61787;42.022;23.078;2023-02-12T03:53:07;97792.97;;;-2.65;74.22
20015;BME280;61787;42.022;23.078;2023-02-12T03:54:09;97792.69;;;-2.57;74.06
20015;BME280;61787;42.022;23.078;2023-02-12T03:55:13;97787.84;;;-2.60;73.93
20015;BME280;61787;42.022;23.078;2023-02-12T03:57:12;97786.09;;;-2.78;73.57
20015;BME280;61787;42.022;23.078;2023-02-12T03:58:21;97793.22;;;-2.96;74.66
20015;BME280;61787;42.022;23.078;2023-02-12T03:59:25;97796.69;;;-3.14;74.86
20015;BME280;61787;42.022;23.078;2023-02-12T04:00:27;97789.78;;;-3.27;75.92
20015;BME280;61787;42.022;23.078;2023-02-12T04:01:29;97784.09;;;-3.42;76.43
20015;BME280;61787;42.022;23.078;2023-02-12T04:02:32;97780.63;;;-3.54;76.50
20015;BME280;61787;42.022;23.078;2023-02-12T04:03:34;97789.13;;;-3.59;77.30
20015;BME280;61787;42.022;23.078;2023-02-12T04:04:37;97777.47;;;-3.63;77.76
20015;BME280;61787;42.022;23.078;2023-02-12T04:05:38;97787.16;;;-3.63;77.75
20015;BME280;61787;42.022;23.078;2023-02-12T04:06:40;97792.56;;;-3.58;77.33
20015;BME280;61787;42.022;23.078;2023-02-12T04:07:42;97792.94;;;-3.55;77.43
20015;BME280;61787;42.022;23.078;2023-02-12T04:08:44;97788.09;;;-3.58;77.71
20015;BME280;61787;42.022;23.078;2023-02-12T04:09:46;97783.97;;;-3.65;78.44
20015;BME280;61787;42.022;23.078;2023-02-12T04:12:29;97777.84;;;-3.77;79.93
20015;BME280;61787;42.022;23.078;2023-02-12T04:15:19;97773.31;;;-3.89;80.91
20015;BME280;61787;42.022;23.078;2023-02-12T04:18:20;97773.75;;;-3.92;81.77
20015;BME280;61787;42.022;23.078;2023-02-12T04:19:49;97777.75;;;-3.89;81.88
20015;BME280;61787;42.022;23.078;2023-02-12T04:21:11;97776.25;;;-3.78;81.38
20015;BME280;61787;42.022;23.078;2023-02-12T04:22:49;97774.66;;;-3.61;80.91
20015;BME280;61787;42.022;23.078;2023-02-12T04:26:53;97771.59;;;-3.40;79.24
20015;BME280;61787;42.022;23.078;2023-02-12T04:28:02;97780.25;;;-3.58;80.11
20015;BME280;61787;42.022;23.078;2023-02-12T04:29:14;97786.78;;;-3.49;80.36
20015;BME280;61787;42.022;23.078;2023-02-12T04:30:31;97783.81;;;-3.34;79.91
20015;BME280;61787;42.022;23.078;2023-02-12T04:31:39;97784.56;;;-3.45;80.07
20015;BME280;61787;42.022;23.078;2023-02-12T04:32:46;97780.00;;;-3.38;80.22
20015;BME280;61787;42.022;23.078;2023-02-12T04:35:13;97776.38;;;-3.37;79.27
20015;BME280;61787;42.022;23.078;2023-02-12T04:36:26;97783.16;;;-3.48;79.54
20015;BME280;61787;42.022;23.078;2023-02-12T04:37:35;97779.44;;;-3.58;79.95
20015;BME280;61787;42.022;23.078;2023-02-12T04:38:58;97791.81;;;-3.47;79.57
20015;BME280;61787;42.022;23.078;2023-02-12T04:40:05;97786.44;;;-3.34;79.23
20015;BME280;61787;42.022;23.078;2023-02-12T04:41:08;97790.28;;;-3.18;78.51
20015;BME280;61787;42.022;23.078;2023-02-12T04:42:11;97774.91;;;-3.15;78.15
20015;BME280;61787;42.022;23.078;2023-02-12T04:43:12;97780.84;;;-3.08;78.31
20015;BME280;61787;42.022;23.078;2023-02-12T04:44:22;97781.09;;;-2.97;78.19
20015;BME280;61787;42.022;23.078;2023-02-12T04:45:32;97782.44;;;-2.77;77.11
20015;BME280;61787;42.022;23.078;2023-02-12T04:46:34;97781.66;;;-2.77;76.98
20015;BME280;61787;42.022;23.078;2023-02-12T04:47:36;97779.59;;;-2.75;77.03
20015;BME280;61787;42.022;23.078;2023-02-12T04:48:50;97776.59;;;-2.90;77.23
20015;BME280;61787;42.022;23.078;2023-02-12T04:49:52;97779.81;;;-3.07;78.68
20015;BME280;61787;42.022;23.078;2023-02-12T04:50:54;97774.97;;;-3.21;79.24
20015;BME280;61787;42.022;23.078;2023-02-12T04:51:56;97773.03;;;-3.26;79.66
20015;BME280;61787;42.022;23.078;2023-02-12T04:52:57;97778.63;;;-3.22;79.37
20015;BME280;61787;42.022;23.078;2023-02-12T04:53:59;97772.13;;;-3.20;79.74
20015;BME280;61787;42.022;23.078;2023-02-12T04:55:00;97767.59;;;-3.13;79.46
20015;BME280;61787;42.022;23.078;2023-02-12T04:56:02;97760.56;;;-3.01;79.57
20015;BME280;61787;42.022;23.078;2023-02-12T04:57:04;97760.84;;;-2.90;79.44
20015;BME280;61787;42.022;23.078;2023-02-12T04:58:06;97768.84;;;-2.85;79.38
20015;BME280;61787;42.022;23.078;2023-02-12T04:59:08;97762.50;;;-2.78;79.32
20015;BME280;61787;42.022;23.078;2023-02-12T05:00:12;97767.06;;;-2.73;78.99
20015;BME280;61787;42.022;23.078;2023-02-12T05:01:14;97765.03;;;-3.01;78.45
20015;BME280;61787;42.022;23.078;2023-02-12T05:02:16;97764.34;;;-3.26;79.15
20015;BME280;61787;42.022;23.078;2023-02-12T05:03:18;97778.00;;;-3.36;79.59
20015;BME280;61787;42.022;23.078;2023-02-12T05:04:19;97767.78;;;-3.26;79.73
20015;BME280;61787;42.022;23.078;2023-02-12T05:05:21;97771.94;;;-3.18;79.49
20015;BME280;61787;42.022;23.078;2023-02-12T05:06:23;97768.78;;;-3.09;79.32
20015;BME280;61787;42.022;23.078;2023-02-12T05:07:25;97757.75;;;-2.99;79.50
20015;BME280;61787;42.022;23.078;2023-02-12T05:08:27;97763.34;;;-2.95;79.65
20015;BME280;61787;42.022;23.078;2023-02-12T05:09:28;97760.50;;;-2.94;79.29
20015;BME280;61787;42.022;23.078;2023-02-12T05:10:30;97757.78;;;-2.87;79.42
20015;BME280;61787;42.022;23.078;2023-02-12T05:11:32;97758.25;;;-2.79;79.38
20015;BME280;61787;42.022;23.078;2023-02-12T05:12:33;97766.25;;;-2.74;79.65
20015;BME280;61787;42.022;23.078;2023-02-12T05:13:35;97759.31;;;-2.68;79.72
20015;BME280;61787;42.022;23.078;2023-02-12T05:14:37;97766.72;;;-2.65;79.20
20015;BME280;61787;42.022;23.078;2023-02-12T05:15:38;97763.06;;;-2.76;79.68
20015;BME280;61787;42.022;23.078;2023-02-12T05:16:40;97772.41;;;-3.10;80.06
20015;BME280;61787;42.022;23.078;2023-02-12T05:17:42;97767.63;;;-3.31;80.30
20015;BME280;61787;42.022;23.078;2023-02-12T05:18:46;97773.38;;;-3.22;80.66
20015;BME280;61787;42.022;23.078;2023-02-12T05:19:48;97769.56;;;-3.08;80.33
20015;BME280;61787;42.022;23.078;2023-02-12T05:21:00;97766.97;;;-2.96;80.17
20015;BME280;61787;42.022;23.078;2023-02-12T05:22:03;97772.72;;;-2.88;79.87
20015;BME280;61787;42.022;23.078;2023-02-12T05:23:04;97776.84;;;-2.80;79.56
20015;BME280;61787;42.022;23.078;2023-02-12T05:24:06;97779.00;;;-2.89;77.79
20015;BME280;61787;42.022;23.078;2023-02-12T05:25:08;97777.94;;;-2.99;77.40
20015;BME280;61787;42.022;23.078;2023-02-12T05:26:13;97763.25;;;-2.89;77.63
20015;BME280;61787;42.022;23.078;2023-02-12T05:27:15;97767.06;;;-2.73;77.55
20015;BME280;61787;42.022;23.078;2023-02-12T05:28:16;97778.16;;;-2.60;76.38
20015;BME280;61787;42.022;23.078;2023-02-12T05:29:18;97770.31;;;-2.48;76.58
20015;BME280;61787;42.022;23.078;2023-02-12T05:30:19;97771.78;;;-2.40;75.98
20015;BME280;61787;42.022;23.078;2023-02-12T05:31:21;97779.34;;;-2.32;75.47
20015;BME280;61787;42.022;23.078;2023-02-12T05:32:23;97784.03;;;-2.23;74.84
20015;BME280;61787;42.022;23.078;2023-02-12T05:33:25;97783.56;;;-2.20;74.85
20015;BME280;61787;42.022;23.078;2023-02-12T05:34:26;97771.13;;;-2.24;74.26
20015;BME280;61787;42.022;23.078;2023-02-12T05:35:28;97774.78;;;-2.25;74.45
20015;BME280;61787;42.022;23.078;2023-02-12T05:36:29;97770.34;;;-2.13;73.66
20015;BME280;61787;42.022;23.078;2023-02-12T05:37:33;97779.84;;;-2.12;73.13
20015;BME280;61787;42.022;23.078;2023-02-12T05:38:36;97782.00;;;-2.21;74.36
20015;BME280;61787;42.022;23.078;2023-02-12T05:39:38;97770.09;;;-2.35;75.65
20015;BME280;61787;42.022;23.078;2023-02-12T05:40:39;97774.66;;;-2.42;76.47
20015;BME280;61787;42.022;23.078;2023-02-12T05:41:43;97772.16;;;-2.37;77.01
20015;BME280;61787;42.022;23.078;2023-02-12T05:42:44;97769.84;;;-2.45;77.06
20015;BME280;61787;42.022;23.078;2023-02-12T05:43:47;97774.75;;;-2.48;77.66
20015;BME280;61787;42.022;23.078;2023-02-12T05:44:50;97784.81;;;-2.45;77.70
20015;BME280;61787;42.022;23.078;2023-02-12T05:45:51;97772.03;;;-2.42;77.73
20015;BME280;61787;42.022;23.078;2023-02-12T05:46:53;97771.91;;;-2.47;77.69
20015;BME280;61787;42.022;23.078;2023-02-12T05:47:55;97767.34;;;-2.40;77.92
20015;BME280;61787;42.022;23.078;2023-02-12T05:48:57;97768.06;;;-2.33;77.47
20015;BME280;61787;42.022;23.078;2023-02-12T05:49:58;97780.97;;;-2.31;77.07
20015;BME280;61787;42.022;23.078;2023-02-12T05:51:02;97777.06;;;-2.29;77.30
20015;BME280;61787;42.022;23.078;2023-02-12T05:52:04;97789.72;;;-2.26;77.07
20015;BME280;61787;42.022;23.078;2023-02-12T05:53:06;97783.03;;;-2.22;77.15
20015;BME280;61787;42.022;23.078;2023-02-12T05:54:09;97784.63;;;-2.21;77.21
20015;BME280;61787;42.022;23.078;2023-02-12T05:55:11;97782.31;;;-2.29;77.73
20015;BME280;61787;42.022;23.078;2023-02-12T05:56:16;97774.28;;;-2.45;78.61
20015;BME280;61787;42.022;23.078;2023-02-12T05:57:18;97783.88;;;-2.51;79.75
20015;BME280;61787;42.022;23.078;2023-02-12T05:58:19;97787.22;;;-2.44;79.38
20015;BME280;61787;42.022;23.078;2023-02-12T05:59:22;97791.56;;;-2.38;78.91
20015;BME280;61787;42.022;23.078;2023-02-12T06:00:23;97798.09;;;-2.29;78.79
20015;BME280;61787;42.022;23.078;2023-02-12T06:01:28;97794.69;;;-2.18;78.08
20015;BME280;61787;42.022;23.078;2023-02-12T06:02:32;97796.41;;;-2.11;77.95
20015;BME280;61787;42.022;23.078;2023-02-12T06:03:34;97787.16;;;-2.02;77.79
20015;BME280;61787;42.022;23.078;2023-02-12T06:04:35;97788.88;;;-1.85;86.92
20015;BME280;61787;42.022;23.078;2023-02-12T06:05:37;97797.75;;;-1.74;84.94
20015;BME280;61787;42.022;23.078;2023-02-12T06:06:38;97797.75;;;-1.74;82.51
20015;BME280;61787;42.022;23.078;2023-02-12T06:07:42;97795.69;;;-1.72;81.71
20015;BME280;61787;42.022;23.078;2023-02-12T06:08:47;97799.81;;;-1.76;80.23